Pikwitonei, Canada
Current Conditions -  °F | °C
As of 7:00 PM on Monday 26 Jan 2015 (Local Time) from CYTH Reporting Station
Light Snow Light Snow  
Wind Chill:   Ceiling: 1300
Heat Index: 12°   Visibility: 15mi
Dew Point:   Wind: 7mph
Humidity: 85%   Direction: 210°SSW
Pressure: 29.77"   Gusts: NA
Location:  55.58°N, 97.15°W
Report Text: CYTH 270100Z 21006KT 15SM -SN BKN013 OVC030 M11/M13 A2977 RMK SC7SC1 SLP105
Loading
Personal Weather Stations






























Interactive Weather Map New forecast layout! Learn more

10-Day Weather Forecast

Advertisements
Track Severe Weather on mobile